Tombstone, AZ (85638)

4:57 PM MST on August 26, 2016 (GMT -0700)
AB7CQ-1 | | Change Station
Active Advisory: Areal Flood Advisory Active Notice: Public Information Statement

Elev 4472 ft 31.73 °N, 110.05 °W | Updated 5 seconds ago

Mostly Cloudy
Mostly Cloudy
79.0 °F
Feels Like 80 °F
N
2.0
Wind Variable Wind from East
Gusts 8.7 mph

Today
High -- | Low -- °F
--% Chance of Precip.
Yesterday
High -- | Low -- °F
Precip. -- in
Pressure 30.11 in
Visibility 10.0 miles
Clouds Scattered Clouds 7000 ft
Mostly Cloudy 9000 ft
Mostly Cloudy 12000 ft
Mostly Cloudy 26000 ft
Heat Index 80 °F
Dew Point 60 °F
Humidity 53%
Rainfall 0.26 in
Snow Depth Not available.
5:52 AM 6:50 PM
Waning Crescent, 30% visible
SPECI KFHU 262313Z 32007KT 10SM VCTS SCT070 BKN090 BKN120 BKN260 27/13 A3011 RMK AO2A LTG DSNT NW-N TSE13
Pressure 30.11 in
Visibility 10.0 miles
Clouds Scattered Clouds 7000 ft
Mostly Cloudy 9000 ft
Mostly Cloudy 12000 ft
Mostly Cloudy 26000 ft
Heat Index 80 °F
Dew Point 60 °F
Humidity 53%
Rainfall 0.26 in
Snow Depth Not available.
5:52 AM 6:50 PM
Waning Crescent, 30% visible
SPECI KFHU 262313Z 32007KT 10SM VCTS SCT070 BKN090 BKN120 BKN260 27/13 A3011 RMK AO2A LTG DSNT NW-N TSE13

10-Day Weather Forecast

Almanac

Astronomy

Aug. 26, 2016 Rise Set
Actual Time
Civil Twilight
Nautical Twilight
Astronomical Twilight
Moon
Length of Visible Light
Length of Day
Tomorrow will be .
, % of the Moon is Illuminated

Today's Extremes

State Highs State Lows

Community

WunderPhotos

Upload Photos

1,935,255 photos uploaded!

WunderBlog® & News

Nearby

Air Quality

  Air Quality AQ Index Pollutant
Not available.

Snow Depth

Station Depth Elevation

Earthquake Activity

City Distance Mag. Time & Date
Minimum magnitude displayed is 2.5.

Coastal Water Temperatures

Place Temperature

Stations

Nearby Weather Stations

Station Location Temp. Windchill Dew Point Humidity Wind Precip. Elev Updated Type
                   

Watches & Warnings

Areal Flood Advisory
Issued: 3:10 PM MDT Aug. 26, 2016 – National Weather Service

The National Weather Service in Tucson has issued a

* Urban and Small Stream Flood Advisory for...
east central Cochise County in southeastern Arizona...

* until 515 PM MST

* at 307 PM MST... heavy rainfall was noted over the Chiricahua
Mountains between Chiricahua National Monument and Rucker
Canyon, with slow movement to the east.

This includes the following streams and drainages... Turkey
Creek... Whitewater Draw... Ash Creek... pinery creek... and Cave Creek.

Precautionary/preparedness actions...

Excessive runoff from heavy rainfall will cause flooding of small
creeks and streams... roads... and other low lying spots.


Lat... Lon 3190 10922 3176 10924 3178 10945 3189 10944


Meyer